createdAt,value
2019-03-26T00:00:21.581Z,99508.71
2019-03-26T00:02:52.379Z,99515.25
2019-03-26T00:05:23.195Z,99508.44
2019-03-26T00:07:54.110Z,99517.58
2019-03-26T00:10:25.945Z,99524.48
2019-03-26T00:12:56.757Z,99525.52
2019-03-26T00:15:27.542Z,99524.72
2019-03-26T00:17:58.310Z,99523.53
2019-03-26T00:20:30.326Z,99528.44
2019-03-26T00:23:01.118Z,99528.91
2019-03-26T00:25:31.918Z,99526.83
2019-03-26T00:28:02.696Z,99528.69
2019-03-26T00:30:33.466Z,99537.58
2019-03-26T00:33:04.235Z,99539.19
2019-03-26T00:35:35.077Z,99548.32
2019-03-26T00:38:05.863Z,99546.86
2019-03-26T00:40:40.070Z,99543.83
2019-03-26T00:43:10.263Z,99552.16
2019-03-26T00:45:41.067Z,99546.06
2019-03-26T00:48:11.927Z,99543.22
2019-03-26T00:50:44.540Z,99555.01
2019-03-26T00:53:15.695Z,99546.59
2019-03-26T00:55:46.735Z,99555.75
2019-03-26T00:58:18.125Z,99556.52
2019-03-26T01:00:49.029Z,99552.45
2019-03-26T01:03:19.859Z,99559.45
2019-03-26T01:05:51.014Z,99553.87
2019-03-26T01:08:22.262Z,99569.71
2019-03-26T01:10:53.680Z,99573.14
2019-03-26T01:13:24.517Z,99577.13
2019-03-26T01:15:55.887Z,99574.98
2019-03-26T01:18:27.144Z,99577.61
2019-03-26T01:20:58.131Z,99578.47
2019-03-26T01:23:29.090Z,99579.84
2019-03-26T01:26:00.390Z,99582.44
2019-03-26T01:28:31.185Z,99580.17
2019-03-26T01:31:02.247Z,99578.47
2019-03-26T01:33:33.400Z,99580.93
2019-03-26T01:36:04.722Z,99584.91
2019-03-26T01:38:35.548Z,99579.84
2019-03-26T01:41:06.833Z,99584.94
2019-03-26T01:43:39.390Z,99590.41
2019-03-26T01:46:10.529Z,99582.89
2019-03-26T01:48:41.892Z,99589.61
2019-03-26T01:51:13.135Z,99587.61
2019-03-26T01:53:45.221Z,99587.69
2019-03-26T01:56:16.099Z,99582.63
2019-03-26T01:58:47.180Z,99578.08
2019-03-26T02:01:18.920Z,99569.80
2019-03-26T02:03:50.090Z,99573.44
2019-03-26T02:06:21.222Z,99573.44
2019-03-26T02:08:52.031Z,99576.13
2019-03-26T02:11:22.815Z,99576.31
2019-03-26T02:13:53.939Z,99574.86
2019-03-26T02:16:25.090Z,99581.99
2019-03-26T02:18:56.638Z,99584.34
2019-03-26T02:21:28.498Z,99590.58
2019-03-26T02:23:59.380Z,99589.77
2019-03-26T02:26:30.187Z,99583.79
2019-03-26T02:29:00.979Z,99583.70
2019-03-26T02:31:32.411Z,99589.97
2019-03-26T02:34:03.165Z,99588.23
2019-03-26T02:36:33.948Z,99586.12
2019-03-26T02:39:05.903Z,99585.83
2019-03-26T02:41:38.037Z,99586.22
2019-03-26T02:44:09.044Z,99589.16
2019-03-26T02:46:39.890Z,99586.39
2019-03-26T02:49:10.639Z,99585.83
2019-03-26T02:51:41.719Z,99578.92
2019-03-26T02:54:12.507Z,99582.05
2019-03-26T02:56:43.313Z,99583.24
2019-03-26T02:59:14.971Z,99591.58
2019-03-26T03:01:46.093Z,99591.63
2019-03-26T03:04:16.882Z,99596.50
2019-03-26T03:06:47.675Z,99606.02
2019-03-26T03:09:18.492Z,99606.21
2019-03-26T03:11:49.264Z,99610.34
2019-03-26T03:14:20.375Z,99618.85
2019-03-26T03:19:38.225Z,99614.77
2019-03-26T03:22:09.673Z,99615.19
2019-03-26T03:24:41.680Z,99615.48
2019-03-26T03:27:12.880Z,99622.81
2019-03-26T03:29:43.677Z,99624.86
2019-03-26T03:32:14.483Z,99635.97
2019-03-26T03:34:49.258Z,99634.92
2019-03-26T03:37:20.489Z,99644.45
2019-03-26T03:39:52.055Z,99643.66
2019-03-26T03:42:25.943Z,99648.96
2019-03-26T03:45:00.995Z,99654.69
2019-03-26T03:47:34.426Z,99655.39
2019-03-26T03:50:07.860Z,99660.33
2019-03-26T03:52:41.137Z,99655.73
2019-03-26T03:55:13.166Z,99653.78
2019-03-26T03:57:52.449Z,99662.95
2019-03-26T04:00:40.816Z,99660.45
2019-03-26T04:03:11.995Z,99663.64
2019-03-26T04:05:44.232Z,99668.94
2019-03-26T04:08:15.017Z,99670.88
2019-03-26T04:10:45.739Z,99670.99
2019-03-26T04:13:17.499Z,99661.92
2019-03-26T04:15:48.664Z,99667.80
2019-03-26T04:18:21.294Z,99668.61
2019-03-26T04:20:53.401Z,99670.78
2019-03-26T04:23:27.109Z,99665.25
2019-03-26T04:25:57.908Z,99677.62
2019-03-26T04:28:33.721Z,99680.07
2019-03-26T04:31:13.460Z,99683.50
2019-03-26T04:33:44.595Z,99677.42
2019-03-26T04:36:25.609Z,99677.42
2019-03-26T04:38:53.736Z,99681.83
2019-03-26T04:41:26.590Z,99679.13
2019-03-26T04:43:59.103Z,99685.52
2019-03-26T04:46:34.434Z,99688.84
2019-03-26T04:49:06.203Z,99690.59
2019-03-26T04:51:39.033Z,99690.86
2019-03-26T04:54:10.181Z,99689.54
2019-03-26T04:56:41.472Z,99698.41
2019-03-26T04:59:13.120Z,99694.84
2019-03-26T05:01:44.471Z,99697.83
2019-03-26T05:04:15.548Z,99700.98
2019-03-26T05:06:46.425Z,99705.38
2019-03-26T05:09:17.373Z,99706.63
2019-03-26T05:11:48.231Z,99706.82
2019-03-26T05:14:19.984Z,99706.87
2019-03-26T05:16:51.074Z,99710.14
2019-03-26T05:19:22.792Z,99703.88
2019-03-26T05:21:54.368Z,99705.83
2019-03-26T05:24:25.202Z,99709.62
2019-03-26T05:26:56.937Z,99702.34
2019-03-26T05:29:28.287Z,99699.34
2019-03-26T05:31:59.137Z,99698.53
2019-03-26T05:34:30.367Z,99701.45
2019-03-26T05:37:02.055Z,99705.06
2019-03-26T05:39:32.896Z,99719.11
2019-03-26T05:42:04.815Z,99727.36
2019-03-26T05:44:36.078Z,99720.74
2019-03-26T05:47:06.948Z,99724.95
2019-03-26T05:49:38.247Z,99724.91
2019-03-26T05:52:09.111Z,99721.45
2019-03-26T05:54:40.118Z,99718.09
2019-03-26T05:57:11.478Z,99725.48
2019-03-26T05:59:42.630Z,99725.48
2019-03-26T06:02:17.837Z,99728.48
2019-03-26T06:04:47.184Z,99728.48
2019-03-26T06:07:18.936Z,99733.30
2019-03-26T06:09:50.465Z,99738.75
2019-03-26T06:12:22.252Z,99741.56
2019-03-26T06:14:53.748Z,99743.08
2019-03-26T06:17:25.128Z,99737.13
2019-03-26T06:19:55.971Z,99738.37
2019-03-26T06:22:27.605Z,99733.97
2019-03-26T06:24:58.581Z,99735.84
2019-03-26T06:27:30.023Z,99735.09
2019-03-26T06:30:01.177Z,99748.99
2019-03-26T06:32:34.186Z,99749.50
2019-03-26T06:35:05.686Z,99758.14
2019-03-26T06:37:36.641Z,99763.39
2019-03-26T06:40:09.723Z,99761.41
2019-03-26T06:42:40.995Z,99766.23
2019-03-26T06:45:12.947Z,99768.28
2019-03-26T06:47:45.005Z,99774.05
2019-03-26T06:50:17.271Z,99773.53
2019-03-26T06:52:48.193Z,99764.16
2019-03-26T06:55:19.499Z,99773.73
2019-03-26T06:57:51.287Z,99776.89
2019-03-26T07:00:32.049Z,99780.95
2019-03-26T07:03:05.512Z,99791.91
2019-03-26T07:05:36.549Z,99785.66
2019-03-26T07:08:07.679Z,99786.20
2019-03-26T07:10:39.132Z,99785.52
2019-03-26T07:13:10.431Z,99788.63
2019-03-26T07:15:43.139Z,99795.59
2019-03-26T07:18:14.721Z,99792.09
2019-03-26T07:20:46.799Z,99791.44
2019-03-26T07:23:17.925Z,99786.77
2019-03-26T07:25:49.581Z,99787.64
2019-03-26T07:28:20.708Z,99782.66
2019-03-26T07:30:51.623Z,99786.45
2019-03-26T07:33:23.367Z,99783.21
2019-03-26T07:35:54.877Z,99795.77
2019-03-26T07:38:26.079Z,99791.97
2019-03-26T07:40:56.967Z,99785.95
2019-03-26T07:43:32.313Z,99798.13
2019-03-26T07:46:11.195Z,99795.00
2019-03-26T07:48:42.625Z,99793.30
2019-03-26T07:51:14.046Z,99798.75
2019-03-26T07:53:45.260Z,99806.33
2019-03-26T07:56:17.776Z,99806.80
2019-03-26T07:58:50.931Z,99812.34
2019-03-26T08:01:22.016Z,99807.36
2019-03-26T08:03:52.988Z,99795.61
2019-03-26T08:06:23.850Z,99799.92
2019-03-26T08:08:54.765Z,99798.64
2019-03-26T08:11:25.982Z,99799.14
2019-03-26T08:13:57.101Z,99800.25
2019-03-26T08:16:28.532Z,99799.57
2019-03-26T08:19:00.194Z,99805.70
2019-03-26T08:21:32.350Z,99805.14
2019-03-26T08:24:04.880Z,99808.17
2019-03-26T08:26:36.877Z,99815.84
2019-03-26T08:29:07.904Z,99821.86
2019-03-26T08:31:38.876Z,99823.17
2019-03-26T08:34:10.273Z,99815.95
2019-03-26T08:36:42.275Z,99821.96
2019-03-26T08:39:13.319Z,99819.09
2019-03-26T08:41:44.665Z,99819.14
2019-03-26T08:44:15.669Z,99823.14
2019-03-26T08:46:47.123Z,99822.28
2019-03-26T08:49:18.323Z,99827.63
2019-03-26T08:51:49.201Z,99824.34
2019-03-26T08:54:20.100Z,99829.58
2019-03-26T08:56:50.979Z,99826.72
2019-03-26T08:59:22.219Z,99822.83
2019-03-26T09:01:53.648Z,99815.56
2019-03-26T09:04:26.990Z,99817.02
2019-03-26T09:06:57.630Z,99821.62
2019-03-26T09:09:29.728Z,99821.62
2019-03-26T09:12:00.644Z,99808.67
2019-03-26T09:14:32.194Z,99808.45
2019-03-26T09:17:03.468Z,99812.53
2019-03-26T09:19:35.430Z,99811.50
2019-03-26T09:22:06.714Z,99812.03
2019-03-26T09:24:37.594Z,99813.72
2019-03-26T09:27:08.373Z,99812.97
2019-03-26T09:29:39.596Z,99808.40
2019-03-26T09:32:10.836Z,99814.50
2019-03-26T09:34:41.622Z,99812.38
2019-03-26T09:37:12.696Z,99818.87
2019-03-26T09:39:44.882Z,99827.31
2019-03-26T09:42:16.330Z,99824.08
2019-03-26T09:44:47.139Z,99834.44
2019-03-26T09:47:17.919Z,99833.66
2019-03-26T09:49:48.695Z,99839.45
2019-03-26T09:52:20.190Z,99837.73
2019-03-26T09:54:51.337Z,99832.58
2019-03-26T09:57:22.489Z,99832.27
2019-03-26T09:59:53.547Z,99831.28
2019-03-26T10:02:26.144Z,99841.75
2019-03-26T10:04:56.871Z,99836.25
2019-03-26T10:07:28.107Z,99830.93
2019-03-26T10:09:58.880Z,99838.69
2019-03-26T10:12:29.666Z,99832.61
2019-03-26T10:15:00.760Z,99826.91
2019-03-26T10:17:33.450Z,99821.66
2019-03-26T10:20:05.364Z,99830.16
2019-03-26T10:22:37.568Z,99825.94
2019-03-26T10:25:11.215Z,99826.38
2019-03-26T10:27:42.481Z,99822.58
2019-03-26T10:30:14.541Z,99822.86
2019-03-26T10:32:45.840Z,99812.66
2019-03-26T10:35:16.833Z,99814.77
2019-03-26T10:37:47.908Z,99820.97
2019-03-26T10:40:31.081Z,99812.33
2019-03-26T10:43:02.588Z,99812.94
2019-03-26T10:45:33.759Z,99808.08
2019-03-26T10:48:06.441Z,99813.83
2019-03-26T10:50:38.259Z,99814.84
2019-03-26T10:53:10.126Z,99813.70
2019-03-26T10:55:41.353Z,99814.98
2019-03-26T10:58:12.990Z,99805.17
2019-03-26T11:00:44.977Z,99799.68
2019-03-26T11:03:16.106Z,99810.42
2019-03-26T11:05:47.386Z,99796.75
2019-03-26T11:08:18.859Z,99796.75
2019-03-26T11:10:50.348Z,99807.58
2019-03-26T11:13:21.337Z,99810.19
2019-03-26T11:15:52.673Z,99815.84
2019-03-26T11:18:24.299Z,99818.19
2019-03-26T11:21:02.731Z,99802.05
2019-03-26T11:23:29.355Z,99796.63
2019-03-26T11:26:00.733Z,99803.70
2019-03-26T11:28:31.783Z,99807.72
2019-03-26T11:31:02.699Z,99806.36
2019-03-26T11:33:34.636Z,99806.33
2019-03-26T11:36:05.684Z,99809.48
2019-03-26T11:38:36.929Z,99801.76
2019-03-26T11:41:08.689Z,99808.86
2019-03-26T11:43:40.059Z,99805.17
2019-03-26T11:46:11.394Z,99793.45
2019-03-26T11:48:42.767Z,99800.52
2019-03-26T11:51:14.254Z,99804.62
2019-03-26T11:53:45.134Z,99804.73
2019-03-26T11:56:15.954Z,99792.46
2019-03-26T11:58:47.722Z,99793.15
2019-03-26T12:01:20.894Z,99798.25
2019-03-26T12:03:52.050Z,99797.05
2019-03-26T12:06:24.443Z,99800.99
2019-03-26T12:08:55.227Z,99795.56
2019-03-26T12:11:27.283Z,99796.19
2019-03-26T12:13:58.073Z,99788.70
2019-03-26T12:16:28.969Z,99794.75
2019-03-26T12:19:00.130Z,99798.09
2019-03-26T12:21:32.196Z,99797.03
2019-03-26T12:24:05.073Z,99790.52
2019-03-26T12:26:36.564Z,99782.20
2019-03-26T12:29:07.379Z,99785.00
2019-03-26T12:31:38.709Z,99779.37
2019-03-26T12:34:15.641Z,99781.66
2019-03-26T12:36:47.638Z,99782.06
2019-03-26T12:39:18.867Z,99780.78
2019-03-26T12:41:50.487Z,99771.96
2019-03-26T12:44:22.026Z,99770.30
2019-03-26T12:46:52.904Z,99760.11
2019-03-26T12:49:23.732Z,99771.08
2019-03-26T12:51:54.976Z,99770.88
2019-03-26T12:54:25.878Z,99762.00
2019-03-26T12:56:56.869Z,99757.56
2019-03-26T12:59:28.477Z,99759.75
2019-03-26T13:01:59.390Z,99758.02
2019-03-26T13:04:30.525Z,99758.39
2019-03-26T13:07:01.942Z,99747.20
2019-03-26T13:09:32.683Z,99749.19
2019-03-26T13:12:03.562Z,99748.16
2019-03-26T13:14:34.842Z,99744.22
2019-03-26T13:17:06.392Z,99747.11
2019-03-26T13:19:38.032Z,99750.36
2019-03-26T13:22:09.227Z,99742.45
2019-03-26T13:24:40.177Z,99738.62
2019-03-26T13:27:11.780Z,99740.66
2019-03-26T13:29:43.323Z,99733.39
2019-03-26T13:32:14.209Z,99740.59
2019-03-26T13:34:45.809Z,99729.55
2019-03-26T13:37:16.645Z,99724.23
2019-03-26T13:39:47.487Z,99723.80
2019-03-26T13:42:18.310Z,99718.70
2019-03-26T13:44:50.847Z,99719.52
2019-03-26T13:47:21.965Z,99722.34
2019-03-26T13:49:52.744Z,99717.53
2019-03-26T13:52:23.541Z,99717.95
2019-03-26T13:54:54.319Z,99709.30
2019-03-26T13:57:25.121Z,99717.48
2019-03-26T13:59:55.902Z,99707.32
2019-03-26T14:02:27.786Z,99710.95
2019-03-26T14:04:58.927Z,99711.73
2019-03-26T14:07:29.832Z,99710.70
2019-03-26T14:10:01.760Z,99705.79
2019-03-26T14:12:34.138Z,99703.97
2019-03-26T14:15:05.370Z,99712.44
2019-03-26T14:17:36.379Z,99706.38
2019-03-26T14:20:08.063Z,99697.44
2019-03-26T14:22:39.292Z,99698.70
2019-03-26T14:25:10.225Z,99695.53
2019-03-26T14:27:42.126Z,99686.20
2019-03-26T14:30:14.333Z,99693.59
2019-03-26T14:32:45.135Z,99693.77
2019-03-26T14:35:16.923Z,99685.95
2019-03-26T14:37:51.543Z,99686.45
2019-03-26T14:40:20.267Z,99682.59
2019-03-26T14:42:51.381Z,99678.92
2019-03-26T14:45:22.455Z,99670.07
2019-03-26T14:47:53.355Z,99669.16
2019-03-26T14:50:24.120Z,99674.47
2019-03-26T14:52:54.989Z,99679.47
2019-03-26T14:55:25.777Z,99679.89
2019-03-26T14:57:56.550Z,99675.91
2019-03-26T15:00:27.352Z,99681.76
2019-03-26T15:02:58.453Z,99671.77
2019-03-26T15:05:29.390Z,99667.03
2019-03-26T15:08:00.185Z,99666.84
2019-03-26T15:10:31.609Z,99664.28
2019-03-26T15:13:02.368Z,99661.78
2019-03-26T15:15:36.386Z,99661.08
2019-03-26T15:18:05.697Z,99665.30
2019-03-26T15:20:36.574Z,99655.30
2019-03-26T15:23:07.381Z,99650.84
2019-03-26T15:25:39.058Z,99657.55
2019-03-26T15:28:11.741Z,99652.27
2019-03-26T15:30:43.068Z,99653.46
2019-03-26T15:33:13.888Z,99651.72
2019-03-26T15:35:45.175Z,99660.65
2019-03-26T15:38:16.552Z,99652.84
2019-03-26T15:40:47.620Z,99650.23
2019-03-26T15:43:18.454Z,99651.89
2019-03-26T15:45:49.920Z,99657.36
2019-03-26T15:48:20.764Z,99647.44
2019-03-26T15:50:51.780Z,99651.59
2019-03-26T15:53:22.627Z,99649.22
2019-03-26T15:55:53.528Z,99650.69
2019-03-26T15:58:24.285Z,99652.02
2019-03-26T16:00:55.511Z,99650.53
2019-03-26T16:03:27.396Z,99653.75
2019-03-26T16:05:59.284Z,99650.83
2019-03-26T16:08:30.134Z,99645.70
2019-03-26T16:13:31.879Z,99646.02
2019-03-26T16:16:03.434Z,99646.69
2019-03-26T16:18:35.111Z,99642.67
2019-03-26T16:21:05.994Z,99638.56
2019-03-26T16:23:37.135Z,99642.26
2019-03-26T16:26:08.489Z,99633.61
2019-03-26T16:28:39.780Z,99636.71
2019-03-26T16:31:10.684Z,99635.21
2019-03-26T16:33:41.856Z,99633.03
2019-03-26T16:36:13.616Z,99645.55
2019-03-26T16:38:45.357Z,99632.38
2019-03-26T16:41:17.354Z,99638.64
2019-03-26T16:43:48.544Z,99641.81
2019-03-26T16:46:19.630Z,99643.37
2019-03-26T16:48:51.172Z,99646.41
2019-03-26T16:51:22.487Z,99637.69
2019-03-26T16:53:53.376Z,99642.67
2019-03-26T16:56:24.647Z,99640.66
2019-03-26T16:58:55.953Z,99649.27
2019-03-26T17:01:26.835Z,99636.31
2019-03-26T17:03:59.373Z,99642.98
2019-03-26T17:06:30.332Z,99652.17
2019-03-26T17:09:07.251Z,99642.94
2019-03-26T17:11:38.271Z,99646.92
2019-03-26T17:14:09.139Z,99641.33
2019-03-26T17:16:40.022Z,99645.00
2019-03-26T17:19:11.626Z,99649.06
2019-03-26T17:21:42.778Z,99650.20
2019-03-26T17:24:13.740Z,99658.20
2019-03-26T17:26:45.350Z,99664.47
2019-03-26T17:29:16.910Z,99657.03
2019-03-26T17:31:48.222Z,99657.39
2019-03-26T17:34:19.077Z,99668.98
2019-03-26T17:36:50.238Z,99672.84
2019-03-26T17:39:23.003Z,99671.41
2019-03-26T17:41:54.137Z,99676.30
2019-03-26T17:44:25.158Z,99682.08
2019-03-26T17:46:56.309Z,99687.55
2019-03-26T17:49:27.597Z,99682.64
2019-03-26T17:51:58.737Z,99677.03
2019-03-26T17:54:30.137Z,99679.09
2019-03-26T17:57:00.936Z,99681.76
2019-03-26T17:59:32.270Z,99685.26
2019-03-26T18:02:03.526Z,99687.83
2019-03-26T18:04:34.463Z,99686.31
2019-03-26T18:07:05.717Z,99697.39
2019-03-26T18:09:36.793Z,99697.39
2019-03-26T18:12:07.682Z,99704.39
2019-03-26T18:14:38.641Z,99706.27
2019-03-26T18:17:09.570Z,99710.91
2019-03-26T18:19:40.912Z,99709.84
2019-03-26T18:22:11.870Z,99717.20
2019-03-26T18:24:44.205Z,99724.58
2019-03-26T18:27:15.332Z,99719.56
2019-03-26T18:29:46.212Z,99723.73
2019-03-26T18:32:29.802Z,99733.51
2019-03-26T18:35:06.231Z,99729.84
2019-03-26T18:37:37.193Z,99730.98
2019-03-26T18:40:08.918Z,99731.77
2019-03-26T18:42:44.337Z,99733.98
2019-03-26T18:45:13.527Z,99731.61
2019-03-26T18:47:44.591Z,99736.71
2019-03-26T18:50:16.098Z,99742.85
2019-03-26T18:52:47.314Z,99745.62
2019-03-26T18:55:18.260Z,99742.25
2019-03-26T18:57:49.829Z,99741.99
2019-03-26T19:00:33.830Z,99748.38
2019-03-26T19:03:06.944Z,99753.02
2019-03-26T19:05:39.433Z,99748.95
2019-03-26T19:08:11.800Z,99755.17
2019-03-26T19:10:43.316Z,99749.95
2019-03-26T19:13:19.727Z,99750.55
2019-03-26T19:15:48.167Z,99750.11
2019-03-26T19:18:32.961Z,99759.20
2019-03-26T19:21:03.838Z,99759.14
2019-03-26T19:23:34.969Z,99765.05
2019-03-26T19:26:05.990Z,99770.37
2019-03-26T19:28:37.219Z,99770.63
2019-03-26T19:31:08.527Z,99771.02
2019-03-26T19:33:40.337Z,99775.53
2019-03-26T19:36:11.196Z,99772.68
2019-03-26T19:38:42.728Z,99774.81
2019-03-26T19:41:14.763Z,99776.47
2019-03-26T19:43:45.668Z,99779.13
2019-03-26T19:46:18.055Z,99779.13
2019-03-26T19:48:49.371Z,99784.60
2019-03-26T19:51:20.943Z,99787.42
2019-03-26T19:53:52.270Z,99793.06
2019-03-26T19:56:25.210Z,99783.27
2019-03-26T19:58:57.769Z,99787.53
2019-03-26T20:01:29.080Z,99789.02
2019-03-26T20:04:00.802Z,99788.78
2019-03-26T20:06:32.542Z,99785.33
2019-03-26T20:09:05.585Z,99791.50
2019-03-26T20:11:36.543Z,99793.19
2019-03-26T20:14:08.038Z,99796.73
2019-03-26T20:16:52.799Z,99789.41
2019-03-26T20:19:23.725Z,99794.37
2019-03-26T20:21:55.265Z,99795.16
2019-03-26T20:24:26.895Z,99797.70
2019-03-26T20:26:57.713Z,99796.43
2019-03-26T20:29:28.545Z,99807.20
2019-03-26T20:31:59.763Z,99799.43
2019-03-26T20:34:30.598Z,99802.13
2019-03-26T20:37:02.623Z,99803.54
2019-03-26T20:39:33.722Z,99797.08
2019-03-26T20:42:05.075Z,99800.03
2019-03-26T20:44:36.613Z,99799.70
2019-03-26T20:47:07.783Z,99798.05
2019-03-26T20:49:39.091Z,99801.14
2019-03-26T20:52:09.964Z,99794.59
2019-03-26T20:54:41.915Z,99801.91
2019-03-26T20:57:14.614Z,99800.77
2019-03-26T20:59:46.668Z,99803.44
2019-03-26T21:02:18.130Z,99805.28
2019-03-26T21:04:49.447Z,99808.27
2019-03-26T21:07:21.507Z,99806.53
2019-03-26T21:09:52.643Z,99802.73
2019-03-26T21:12:23.399Z,99801.39
2019-03-26T21:14:54.632Z,99805.38
2019-03-26T21:17:28.161Z,99807.50
2019-03-26T21:19:59.474Z,99819.00
2019-03-26T21:22:31.204Z,99823.20
2019-03-26T21:25:05.093Z,99814.88
2019-03-26T21:27:37.323Z,99812.45
2019-03-26T21:30:15.542Z,99816.53
2019-03-26T21:32:45.750Z,99816.37
2019-03-26T21:35:16.575Z,99814.22
2019-03-26T21:37:47.411Z,99815.08
2019-03-26T21:40:18.867Z,99812.97
2019-03-26T21:42:50.025Z,99806.77
2019-03-26T21:45:33.668Z,99808.30
2019-03-26T21:48:05.202Z,99811.07
2019-03-26T21:50:37.756Z,99811.82
2019-03-26T21:53:10.272Z,99810.31
2019-03-26T21:55:41.178Z,99813.90
2019-03-26T21:58:14.090Z,99813.90
2019-03-26T22:00:45.030Z,99809.39
2019-03-26T22:03:15.872Z,99812.35
2019-03-26T22:05:48.093Z,99810.05
2019-03-26T22:08:19.254Z,99811.92
2019-03-26T22:10:50.405Z,99816.83
2019-03-26T22:13:21.243Z,99815.70
2019-03-26T22:15:52.127Z,99817.01
2019-03-26T22:18:22.964Z,99812.84
2019-03-26T22:20:53.901Z,99815.13
2019-03-26T22:23:24.742Z,99814.92
2019-03-26T22:25:56.152Z,99815.86
2019-03-26T22:28:26.984Z,99819.33
2019-03-26T22:30:58.463Z,99815.19
2019-03-26T22:33:29.447Z,99814.94
2019-03-26T22:36:00.527Z,99811.69
2019-03-26T22:38:31.713Z,99816.37
2019-03-26T22:41:03.331Z,99815.66
2019-03-26T22:43:34.457Z,99811.33
2019-03-26T22:46:05.339Z,99813.75
2019-03-26T22:48:36.860Z,99817.03
2019-03-26T22:51:08.067Z,99813.06
2019-03-26T22:53:39.313Z,99811.34
2019-03-26T22:56:10.084Z,99802.80
2019-03-26T22:58:40.936Z,99800.19
2019-03-26T23:01:11.790Z,99802.27
2019-03-26T23:03:44.220Z,99802.23
2019-03-26T23:06:15.061Z,99803.59
2019-03-26T23:08:45.903Z,99803.52
2019-03-26T23:11:16.642Z,99812.53
2019-03-26T23:13:47.789Z,99811.74
2019-03-26T23:16:20.464Z,99815.47
2019-03-26T23:18:52.727Z,99812.19
2019-03-26T23:21:23.777Z,99816.86
2019-03-26T23:23:54.920Z,99810.84
2019-03-26T23:26:27.209Z,99809.77
2019-03-26T23:28:58.018Z,99817.50
2019-03-26T23:31:29.341Z,99811.09
2019-03-26T23:34:00.403Z,99812.09
2019-03-26T23:36:31.154Z,99813.91
2019-03-26T23:39:03.732Z,99817.67
2019-03-26T23:41:39.449Z,99822.59
2019-03-26T23:44:08.676Z,99824.27
2019-03-26T23:46:39.408Z,99830.58
2019-03-26T23:49:10.244Z,99828.30
2019-03-26T23:51:41.423Z,99825.13
2019-03-26T23:54:12.302Z,99825.39
2019-03-26T23:56:43.062Z,99821.44
2019-03-26T23:59:14.624Z,99830.44
